TAF KMGW
KMGW 270538Z 2706/2806 29007KT P6SM OVC035 FM270800 24004KT P6SM OVC025 FM271400 23007KT P6SM BKN050 FM280100 17004KT P6SM VCSH OVC050=
METAR KMGW
WC KMGW
WS KMGW
WV KMGW